Time;durP1;ratioP1;P1;durP2;ratioP2;P2;SDS_P1;SDS_P2;PMS_P1;PMS_P2;Temp;Humidity;BMP_temperature;BMP_pressure;BME280_temperature;BME280_humidity;BME280_pressure;Samples;Min_cycle;Max_cycle;Signal;HPM_P1;HPM_P2
2021/01/11 00:00:21;;;;;;;16.93;14.17;;;2.60;99.90;;;;;;5067177;28;20687;-64
2021/01/11 00:02:47;;;;;;;21.00;15.37;;;2.60;99.90;;;;;;5062538;28;20209;-64
2021/01/11 00:05:14;;;;;;;20.43;15.10;;;2.50;99.90;;;;;;5059559;28;21014;-65
2021/01/11 00:07:43;;;;;;;17.77;14.33;;;2.50;99.90;;;;;;5064648;28;20530;-64
2021/01/11 00:10:11;;;;;;;22.67;15.33;;;2.40;99.90;;;;;;5063804;28;20494;-65
2021/01/11 00:12:41;;;;;;;19.57;14.33;;;2.40;99.90;;;;;;5065114;28;20438;-65
2021/01/11 00:15:12;;;;;;;18.70;14.90;;;2.40;99.90;;;;;;5063309;28;20469;-65
2021/01/11 00:17:38;;;;;;;20.30;14.83;;;2.40;99.90;;;;;;5064782;28;20488;-64
2021/01/11 00:20:05;;;;;;;19.63;15.47;;;2.30;99.90;;;;;;5068312;28;20437;-64
2021/01/11 00:22:31;;;;;;;21.73;15.50;;;2.30;99.90;;;;;;5071777;28;20827;-64
2021/01/11 00:24:57;;;;;;;21.00;14.37;;;2.30;99.90;;;;;;5069784;28;20469;-65
2021/01/11 00:27:22;;;;;;;17.13;14.33;;;2.30;99.90;;;;;;5064551;28;20456;-65
2021/01/11 00:29:48;;;;;;;20.30;15.13;;;2.20;99.90;;;;;;5065549;28;20183;-66
2021/01/11 00:32:13;;;;;;;23.30;15.40;;;2.20;99.90;;;;;;5070101;28;20722;-66
2021/01/11 00:34:39;;;;;;;20.97;16.20;;;2.20;99.90;;;;;;5065313;28;20212;-65
2021/01/11 00:37:04;;;;;;;20.10;16.37;;;2.10;99.90;;;;;;5069046;28;20187;-65
2021/01/11 00:39:30;;;;;;;19.70;14.50;;;2.10;99.90;;;;;;5068588;28;20231;-65
2021/01/11 00:41:59;;;;;;;20.23;15.70;;;2.00;99.90;;;;;;5068777;28;20589;-65
2021/01/11 00:44:26;;;;;;;20.00;16.17;;;2.00;99.90;;;;;;5058916;28;20199;-66
2021/01/11 00:46:51;;;;;;;19.33;14.37;;;2.00;99.90;;;;;;5066310;28;20495;-66
2021/01/11 00:49:17;;;;;;;19.50;15.70;;;1.90;99.90;;;;;;5065742;28;20455;-65
2021/01/11 00:51:43;;;;;;;22.33;16.60;;;1.90;99.90;;;;;;5064133;28;20192;-65
2021/01/11 00:54:09;;;;;;;21.77;15.60;;;1.90;99.90;;;;;;5065811;28;20458;-65
2021/01/11 00:56:34;;;;;;;26.47;18.23;;;1.80;99.90;;;;;;5068036;28;20191;-65
2021/01/11 00:59:00;;;;;;;22.07;15.90;;;1.80;99.90;;;;;;5068174;28;20425;-65
2021/01/11 01:01:25;;;;;;;20.33;17.47;;;1.80;99.90;;;;;;5068882;28;20187;-65
2021/01/11 01:03:51;;;;;;;22.10;17.70;;;1.80;99.90;;;;;;5068533;28;20249;-65
2021/01/11 01:06:17;;;;;;;25.30;16.77;;;1.80;99.90;;;;;;5066539;28;20226;-65
2021/01/11 01:08:43;;;;;;;21.30;17.10;;;1.70;99.90;;;;;;5068976;28;20176;-66
2021/01/11 01:11:10;;;;;;;22.57;18.17;;;1.70;99.90;;;;;;5067427;28;20456;-65
2021/01/11 01:13:35;;;;;;;24.67;17.67;;;1.80;99.90;;;;;;5067227;28;20198;-65
2021/01/11 01:16:01;;;;;;;22.73;17.60;;;1.80;99.90;;;;;;5068224;28;20457;-65
2021/01/11 01:18:27;;;;;;;23.90;17.30;;;1.80;99.90;;;;;;5069145;28;20617;-65
2021/01/11 01:20:52;;;;;;;21.93;18.27;;;1.80;99.90;;;;;;5062223;28;20175;-65
2021/01/11 01:23:18;;;;;;;21.27;16.23;;;1.80;99.90;;;;;;5069215;28;20197;-65
2021/01/11 01:25:43;;;;;;;27.03;17.20;;;1.90;99.90;;;;;;5067441;28;20203;-65
2021/01/11 01:28:09;;;;;;;27.80;16.60;;;1.90;99.90;;;;;;5063930;28;21541;-65
2021/01/11 01:30:35;;;;;;;18.77;15.30;;;2.00;99.90;;;;;;5067520;28;20183;-65
2021/01/11 01:33:00;;;;;;;21.83;17.10;;;2.00;99.90;;;;;;5070462;28;20696;-66
2021/01/11 01:35:26;;;;;;;20.20;15.70;;;2.00;99.90;;;;;;5066544;28;20215;-66
2021/01/11 01:37:52;;;;;;;21.33;16.53;;;2.10;99.90;;;;;;5066289;28;20191;-65
2021/01/11 01:40:18;;;;;;;20.50;15.47;;;2.10;99.90;;;;;;5064028;28;21207;-65
2021/01/11 01:42:44;;;;;;;19.57;15.70;;;2.10;99.90;;;;;;5067577;28;20312;-65
2021/01/11 01:45:10;;;;;;;20.40;16.50;;;2.20;99.90;;;;;;5066654;28;20259;-65
2021/01/11 01:47:35;;;;;;;20.60;15.10;;;2.20;99.90;;;;;;5065902;28;20525;-65
2021/01/11 01:50:05;;;;;;;18.30;14.23;;;2.10;99.90;;;;;;5068319;28;20437;-65
2021/01/11 01:52:31;;;;;;;21.83;16.00;;;2.10;99.90;;;;;;5062981;28;20446;-65
2021/01/11 01:54:56;;;;;;;21.33;16.10;;;2.20;99.90;;;;;;5067485;28;20962;-65
2021/01/11 01:57:22;;;;;;;19.87;15.43;;;2.20;99.90;;;;;;5066006;28;20446;-65
2021/01/11 01:59:49;;;;;;;24.10;14.50;;;2.20;99.90;;;;;;5066746;28;20210;-65
2021/01/11 02:02:18;;;;;;;17.27;14.90;;;2.20;99.90;;;;;;5041749;28;20187;-66
2021/01/11 02:04:44;;;;;;;17.63;14.30;;;2.20;99.90;;;;;;5059932;28;20434;-66
2021/01/11 02:07:26;;;;;;;21.63;16.33;;;2.20;99.90;;;;;;5066496;28;21086;-65
2021/01/11 02:10:02;;;;;;;16.57;13.70;;;2.20;99.90;;;;;;5067549;28;20426;-66
2021/01/11 02:12:43;;;;;;;19.43;13.00;;;2.20;99.90;;;;;;5060646;28;20463;-65
2021/01/11 02:15:16;;;;;;;18.47;13.50;;;2.20;99.90;;;;;;5066687;28;20527;-65
2021/01/11 02:17:59;;;;;;;16.93;13.97;;;2.20;99.90;;;;;;5063875;28;21132;-65
2021/01/11 02:21:01;;;;;;;19.20;14.47;;;2.20;99.90;;;;;;5056846;28;20548;-65
2021/01/11 02:23:33;;;;;;;18.40;14.90;;;2.20;99.90;;;;;;5065777;28;20470;-65
2021/01/11 02:26:09;;;;;;;18.37;13.30;;;2.20;99.90;;;;;;5065115;28;20437;-65
2021/01/11 02:28:59;;;;;;;19.10;13.57;;;2.20;99.90;;;;;;5062907;28;20469;-65
2021/01/11 02:31:26;;;;;;;16.53;12.50;;;2.20;99.90;;;;;;5064010;28;20827;-65
2021/01/11 02:33:55;;;;;;;16.00;12.40;;;2.20;99.90;;;;;;5041221;28;20498;-65
2021/01/11 02:36:21;;;;;;;15.90;13.07;;;2.20;99.90;;;;;;5066941;28;20438;-65
2021/01/11 02:38:49;;;;;;;16.80;14.47;;;2.10;99.90;;;;;;5063630;28;20497;-65
2021/01/11 02:41:15;;;;;;;18.43;14.93;;;2.20;99.90;;;;;;5066395;28;20511;-65
2021/01/11 02:43:40;;;;;;;18.90;14.13;;;2.20;99.90;;;;;;5063545;28;20422;-65
2021/01/11 02:46:06;;;;;;;21.70;15.80;;;2.20;99.90;;;;;;5066958;28;20184;-65
2021/01/11 02:48:52;;;;;;;15.93;13.97;;;2.20;99.90;;;;;;5064976;28;20184;-65
2021/01/11 02:51:20;;;;;;;20.43;15.10;;;2.30;99.90;;;;;;5064237;28;20825;-65
2021/01/11 02:54:07;;;;;;;18.50;14.70;;;2.30;99.90;;;;;;5065139;28;20448;-65
2021/01/11 02:56:41;;;;;;;18.50;14.77;;;2.30;99.90;;;;;;5068034;28;20989;-65
2021/01/11 02:59:26;;;;;;;17.80;14.80;;;2.30;99.90;;;;;;5066638;28;20442;-65
2021/01/11 03:02:03;;;;;;;22.43;14.43;;;2.30;99.90;;;;;;5067577;28;20438;-65
2021/01/11 03:04:31;;;;;;;17.40;12.97;;;2.40;99.90;;;;;;5063411;28;20911;-65
2021/01/11 03:07:02;;;;;;;16.53;13.63;;;2.40;99.90;;;;;;5062368;28;20446;-65
2021/01/11 03:09:29;;;;;;;16.00;13.40;;;2.40;99.90;;;;;;5061233;28;20539;-65
2021/01/11 03:11:56;;;;;;;15.83;13.50;;;2.40;99.90;;;;;;5067747;28;20442;-65
2021/01/11 03:14:23;;;;;;;20.43;15.07;;;2.40;99.90;;;;;;5065889;28;20480;-65
2021/01/11 03:16:48;;;;;;;19.60;15.07;;;2.40;99.90;;;;;;5061012;28;20472;-65
2021/01/11 03:19:14;;;;;;;20.93;15.10;;;2.50;99.90;;;;;;5063307;28;20444;-65
2021/01/11 03:21:40;;;;;;;20.40;15.30;;;2.50;99.90;;;;;;5063296;28;20329;-65
2021/01/11 03:24:07;;;;;;;18.60;16.20;;;2.50;99.90;;;;;;5064333;28;20176;-65
2021/01/11 03:26:33;;;;;;;22.33;15.03;;;2.50;99.90;;;;;;5063546;28;20441;-65
2021/01/11 03:28:59;;;;;;;18.20;14.43;;;2.50;99.90;;;;;;5061178;28;20441;-65
2021/01/11 03:31:25;;;;;;;17.43;14.70;;;2.50;99.90;;;;;;5066519;28;20579;-65
2021/01/11 03:33:50;;;;;;;16.93;13.43;;;2.60;99.90;;;;;;5063676;28;20202;-65
2021/01/11 03:36:16;;;;;;;17.50;13.83;;;2.50;99.90;;;;;;5062349;28;20187;-65
2021/01/11 03:38:42;;;;;;;15.80;13.53;;;2.50;99.90;;;;;;5067237;28;20218;-65
2021/01/11 03:41:11;;;;;;;20.87;12.00;;;2.40;99.90;;;;;;5061002;28;20434;-65
2021/01/11 03:43:38;;;;;;;13.37;10.50;;;2.40;99.90;;;;;;5066270;28;20430;-65
2021/01/11 03:46:05;;;;;;;14.27;11.50;;;2.40;99.90;;;;;;5065495;28;20429;-65
2021/01/11 03:48:30;;;;;;;14.43;11.57;;;2.40;99.90;;;;;;5063383;28;20433;-65
2021/01/11 03:50:56;;;;;;;14.93;12.10;;;2.30;99.90;;;;;;5065267;28;20445;-65
2021/01/11 03:53:21;;;;;;;15.67;12.53;;;2.30;99.90;;;;;;5063249;28;20325;-65
2021/01/11 03:55:47;;;;;;;17.73;12.80;;;2.30;99.90;;;;;;5063585;28;20204;-65
2021/01/11 03:58:12;;;;;;;15.23;12.63;;;2.30;99.90;;;;;;5062112;28;20202;-65
2021/01/11 04:00:38;;;;;;;14.17;12.37;;;2.30;99.90;;;;;;5067618;28;20184;-65
2021/01/11 04:03:04;;;;;;;14.63;11.77;;;2.30;99.90;;;;;;5063685;28;20227;-65
2021/01/11 04:05:30;;;;;;;17.40;12.40;;;2.30;99.90;;;;;;5056663;28;20191;-65
2021/01/11 04:07:56;;;;;;;14.47;11.87;;;2.30;99.90;;;;;;5066860;28;20525;-65
2021/01/11 04:10:21;;;;;;;19.63;14.70;;;2.30;99.90;;;;;;5065509;28;20238;-65
2021/01/11 04:12:47;;;;;;;19.77;13.73;;;2.30;99.90;;;;;;5062207;28;20430;-65
2021/01/11 04:15:13;;;;;;;17.17;13.23;;;2.30;99.90;;;;;;5067629;28;20218;-65
2021/01/11 04:17:39;;;;;;;17.60;14.30;;;2.30;99.90;;;;;;5061912;28;20187;-65
2021/01/11 04:20:06;;;;;;;14.97;13.00;;;2.30;99.90;;;;;;5067250;28;20434;-65
2021/01/11 04:22:31;;;;;;;14.40;12.90;;;2.30;99.90;;;;;;5065142;28;20196;-65
2021/01/11 04:24:57;;;;;;;18.13;14.30;;;2.40;99.90;;;;;;5062542;28;20446;-65
2021/01/11 04:27:23;;;;;;;17.63;14.27;;;2.30;99.90;;;;;;5063659;28;20191;-65
2021/01/11 04:29:48;;;;;;;13.87;12.00;;;2.30;99.90;;;;;;5065630;28;20240;-65
2021/01/11 04:32:14;;;;;;;14.87;12.70;;;2.30;99.90;;;;;;5061895;28;20195;-65
2021/01/11 04:34:39;;;;;;;14.27;11.53;;;2.30;99.90;;;;;;5064506;28;20218;-66
2021/01/11 04:37:08;;;;;;;15.73;12.07;;;2.30;99.90;;;;;;5065788;28;20445;-65
2021/01/11 04:39:34;;;;;;;15.27;11.70;;;2.30;99.90;;;;;;5062269;28;20595;-65
2021/01/11 04:42:02;;;;;;;15.20;11.57;;;2.20;99.90;;;;;;5063035;28;20426;-66
2021/01/11 04:44:29;;;;;;;15.43;12.37;;;2.30;99.90;;;;;;5057491;28;20483;-65
2021/01/11 04:46:55;;;;;;;17.47;11.10;;;2.30;99.90;;;;;;5064773;28;20532;-65
2021/01/11 04:49:20;;;;;;;13.97;10.67;;;2.20;99.90;;;;;;5063405;28;20441;-66
2021/01/11 04:51:46;;;;;;;11.07;9.70;;;2.20;99.90;;;;;;5063281;28;20441;-65
2021/01/11 04:54:16;;;;;;;16.20;12.90;;;2.10;99.90;;;;;;5066373;28;20728;-65
2021/01/11 04:56:46;;;;;;;14.27;11.83;;;2.10;99.90;;;;;;5063659;28;20558;-65
2021/01/11 04:59:17;;;;;;;14.40;11.43;;;2.10;99.90;;;;;;5064209;28;20445;-65
2021/01/11 05:01:47;;;;;;;18.03;12.00;;;2.10;99.90;;;;;;5062632;28;20442;-65
2021/01/11 05:04:14;;;;;;;16.80;13.20;;;2.10;99.90;;;;;;5058368;28;20425;-65
2021/01/11 05:06:47;;;;;;;14.27;11.50;;;2.10;99.90;;;;;;5070910;28;20433;-65
2021/01/11 05:09:14;;;;;;;16.87;13.50;;;2.20;99.90;;;;;;5061502;28;20487;-65
2021/01/11 05:11:40;;;;;;;18.47;13.60;;;2.20;99.90;;;;;;5069386;28;20433;-65
2021/01/11 05:14:05;;;;;;;20.40;13.57;;;2.20;99.90;;;;;;5066086;28;20425;-65
2021/01/11 05:16:31;;;;;;;17.20;13.20;;;2.20;99.90;;;;;;5068225;28;20198;-65
2021/01/11 05:19:16;;;;;;;18.90;13.30;;;2.20;99.90;;;;;;5069218;28;20217;-65
2021/01/11 05:21:44;;;;;;;16.10;12.50;;;2.20;99.90;;;;;;5058407;28;20397;-65
2021/01/11 05:24:37;;;;;;;17.37;13.90;;;2.20;99.90;;;;;;5067190;28;20458;-65
2021/01/11 05:27:06;;;;;;;18.20;13.33;;;2.20;99.90;;;;;;5060512;28;20430;-65
2021/01/11 05:29:32;;;;;;;15.93;13.23;;;2.20;99.90;;;;;;5070212;28;20425;-65
2021/01/11 05:32:00;;;;;;;22.87;16.37;;;2.20;99.90;;;;;;5067021;28;20933;-65
2021/01/11 05:34:47;;;;;;;22.73;15.67;;;2.20;99.90;;;;;;5069588;28;20822;-65
2021/01/11 05:37:31;;;;;;;28.43;18.23;;;2.20;99.90;;;;;;5062249;28;20457;-65
2021/01/11 05:40:11;;;;;;;26.30;19.27;;;2.20;99.90;;;;;;5067889;28;20458;-65
2021/01/11 05:42:38;;;;;;;24.87;19.03;;;2.20;99.90;;;;;;5069008;28;20507;-65
2021/01/11 05:45:25;;;;;;;21.73;18.90;;;2.20;99.90;;;;;;5068984;28;20789;-65
2021/01/11 05:48:06;;;;;;;23.77;18.87;;;2.20;99.90;;;;;;5065902;28;20959;-65
2021/01/11 05:50:47;;;;;;;24.43;19.97;;;2.20;99.90;;;;;;5068122;28;20437;-65
2021/01/11 05:53:26;;;;;;;23.93;19.30;;;2.20;99.90;;;;;;5065551;28;20449;-65
2021/01/11 05:55:53;;;;;;;26.70;19.17;;;2.20;99.90;;;;;;5068763;28;20465;-65
2021/01/11 05:58:19;;;;;;;25.70;21.60;;;2.20;99.90;;;;;;5066550;28;20434;-65
2021/01/11 06:00:46;;;;;;;26.00;19.50;;;2.20;99.90;;;;;;5067085;28;20889;-66
2021/01/11 06:03:12;;;;;;;26.00;21.10;;;2.20;99.90;;;;;;5041788;28;20910;-65
2021/01/11 06:05:38;;;;;;;26.97;19.67;;;2.20;99.90;;;;;;5067013;28;20469;-65
2021/01/11 06:08:06;;;;;;;31.00;20.00;;;2.20;99.90;;;;;;5065898;28;20464;-65
2021/01/11 06:10:32;;;;;;;23.20;20.07;;;2.20;99.90;;;;;;5067534;28;20911;-66
2021/01/11 06:12:58;;;;;;;26.80;21.50;;;2.20;99.90;;;;;;5066687;28;22754;-65
2021/01/11 06:15:26;;;;;;;35.20;21.83;;;2.20;99.90;;;;;;5067290;28;20835;-65
2021/01/11 06:17:54;;;;;;;28.00;22.73;;;2.20;99.90;;;;;;5065880;28;20218;-65
2021/01/11 06:20:23;;;;;;;27.90;22.30;;;2.20;99.90;;;;;;5066461;28;20446;-65
2021/01/11 06:22:51;;;;;;;28.67;23.57;;;2.20;99.90;;;;;;5061795;28;20496;-65
2021/01/11 06:25:22;;;;;;;29.53;22.80;;;2.30;99.90;;;;;;5065656;28;20450;-66
2021/01/11 06:28:01;;;;;;;26.10;22.00;;;2.20;99.90;;;;;;5065213;28;20437;-65
2021/01/11 06:30:44;;;;;;;26.30;20.53;;;2.30;99.90;;;;;;5065131;28;20443;-66
2021/01/11 06:33:11;;;;;;;31.73;21.60;;;2.30;99.90;;;;;;5064865;28;20425;-66
2021/01/11 06:35:51;;;;;;;25.77;22.00;;;2.30;99.90;;;;;;5066522;28;20465;-66
2021/01/11 06:38:26;;;;;;;24.57;21.87;;;2.30;99.90;;;;;;5059266;28;20930;-66
2021/01/11 06:40:54;;;;;;;27.97;20.90;;;2.30;99.90;;;;;;5069256;28;20433;-65
2021/01/11 06:43:21;;;;;;;26.00;21.77;;;2.30;99.90;;;;;;5067152;28;20526;-66
2021/01/11 06:45:48;;;;;;;32.60;23.07;;;2.30;99.90;;;;;;5066659;28;20444;-66
2021/01/11 06:48:20;;;;;;;29.07;23.83;;;2.30;99.90;;;;;;5064428;28;20434;-65
2021/01/11 06:50:48;;;;;;;36.07;24.53;;;2.30;99.90;;;;;;5068260;28;20450;-65
2021/01/11 06:53:25;;;;;;;23.57;21.03;;;2.30;99.90;;;;;;5067837;28;20564;-65
2021/01/11 06:56:09;;;;;;;30.77;22.80;;;2.40;99.90;;;;;;5065013;28;20457;-65
2021/01/11 06:58:38;;;;;;;32.63;23.37;;;2.40;99.90;;;;;;5066096;28;20448;-65
2021/01/11 07:01:08;;;;;;;28.73;22.13;;;2.40;99.90;;;;;;5065320;28;20442;-65
2021/01/11 07:03:45;;;;;;;25.23;20.60;;;2.30;99.90;;;;;;5063053;28;20458;-66
2021/01/11 07:06:37;;;;;;;26.10;21.77;;;2.40;99.90;;;;;;5066749;28;20655;-66
2021/01/11 07:09:17;;;;;;;25.87;22.10;;;2.40;99.90;;;;;;5058876;28;20441;-65
2021/01/11 07:11:45;;;;;;;30.60;23.00;;;2.40;99.90;;;;;;5067752;28;20828;-66
2021/01/11 07:14:12;;;;;;;26.23;22.20;;;2.40;99.90;;;;;;5062841;28;20442;-65
2021/01/11 07:16:42;;;;;;;24.47;21.80;;;2.40;99.90;;;;;;5066091;28;20442;-65
2021/01/11 07:19:09;;;;;;;23.50;20.30;;;2.40;99.90;;;;;;5065262;28;20430;-66
2021/01/11 07:21:37;;;;;;;26.47;20.47;;;2.40;99.90;;;;;;5061776;28;20934;-65
2021/01/11 07:24:05;;;;;;;20.97;17.83;;;2.40;99.90;;;;;;5066720;28;20975;-66
2021/01/11 07:26:31;;;;;;;20.70;17.70;;;2.30;99.90;;;;;;5062411;28;20712;-65
2021/01/11 07:28:57;;;;;;;23.20;18.63;;;2.30;99.90;;;;;;5064910;28;20467;-65
2021/01/11 07:31:49;;;;;;;27.03;20.17;;;2.30;99.90;;;;;;5065784;28;20908;-65
2021/01/11 07:34:21;;;;;;;22.33;16.93;;;2.30;99.90;;;;;;5059772;28;20278;-66
2021/01/11 07:36:49;;;;;;;20.57;17.57;;;2.20;99.90;;;;;;5044549;28;20543;-66
2021/01/11 07:39:27;;;;;;;22.20;17.93;;;2.20;99.90;;;;;;5063330;28;20476;-66
2021/01/11 07:42:06;;;;;;;23.37;17.80;;;2.30;99.90;;;;;;5065938;28;20532;-65
2021/01/11 07:44:36;;;;;;;18.43;16.30;;;2.30;99.90;;;;;;5063960;28;20449;-66
2021/01/11 07:47:06;;;;;;;19.33;17.17;;;2.30;99.90;;;;;;5065481;28;20426;-65
2021/01/11 07:49:34;;;;;;;22.23;18.50;;;2.30;99.90;;;;;;5063762;28;20475;-65
2021/01/11 07:52:07;;;;;;;23.00;17.20;;;2.30;99.90;;;;;;5058953;28;20430;-65
2021/01/11 07:54:33;;;;;;;18.00;15.70;;;2.30;99.90;;;;;;5067463;28;20473;-65
2021/01/11 07:56:59;;;;;;;23.63;15.90;;;2.30;99.90;;;;;;5064980;28;20484;-65
2021/01/11 07:59:25;;;;;;;21.47;16.50;;;2.30;99.90;;;;;;5067372;28;20470;-65
2021/01/11 08:01:51;;;;;;;19.10;15.60;;;2.30;99.90;;;;;;5065619;28;20192;-65
2021/01/11 08:04:19;;;;;;;22.80;17.53;;;2.30;99.90;;;;;;5062496;28;20461;-65
2021/01/11 08:06:47;;;;;;;27.13;17.63;;;2.30;99.90;;;;;;5059521;28;20525;-65
2021/01/11 08:09:13;;;;;;;21.70;17.00;;;2.30;99.90;;;;;;5060059;28;20520;-66
2021/01/11 08:11:40;;;;;;;23.23;18.40;;;2.30;99.90;;;;;;5064560;28;20445;-65
2021/01/11 08:14:10;;;;;;;20.20;17.00;;;2.30;99.90;;;;;;5059272;28;20442;-65
2021/01/11 08:16:38;;;;;;;22.83;17.17;;;2.30;99.90;;;;;;5059358;28;20446;-65
2021/01/11 08:19:10;;;;;;;21.30;17.63;;;2.30;99.90;;;;;;5062871;28;20430;-65
2021/01/11 08:21:37;;;;;;;26.30;19.00;;;2.20;99.90;;;;;;5063898;28;20446;-65
2021/01/11 08:24:08;;;;;;;24.93;19.17;;;2.20;99.90;;;;;;5062916;28;20452;-65
2021/01/11 08:26:50;;;;;;;26.53;20.93;;;2.20;99.90;;;;;;5061983;28;20979;-65
2021/01/11 08:29:16;;;;;;;23.37;18.47;;;2.20;99.90;;;;;;5060008;28;20434;-65
2021/01/11 08:31:45;;;;;;;25.10;17.63;;;2.20;99.90;;;;;;5061072;28;20474;-65
2021/01/11 08:34:11;;;;;;;23.03;18.10;;;2.30;99.90;;;;;;5064103;28;20990;-66
2021/01/11 08:36:37;;;;;;;22.20;18.23;;;2.30;99.90;;;;;;5064584;28;20662;-66
2021/01/11 08:39:17;;;;;;;23.53;18.23;;;2.30;99.90;;;;;;5064193;28;21024;-65
2021/01/11 08:41:47;;;;;;;30.30;20.23;;;2.30;99.90;;;;;;5063681;28;20194;-65
2021/01/11 08:44:33;;;;;;;25.07;19.63;;;2.30;99.90;;;;;;5064192;28;20583;-66
2021/01/11 08:47:07;;;;;;;23.70;17.83;;;2.40;99.90;;;;;;5059291;28;20429;-65
2021/01/11 08:49:55;;;;;;;24.43;18.83;;;2.40;99.90;;;;;;5068445;28;20663;-65
2021/01/11 08:52:26;;;;;;;23.27;17.43;;;2.40;99.90;;;;;;5068409;28;20480;-65
2021/01/11 08:54:51;;;;;;;19.47;16.33;;;2.40;99.90;;;;;;5067755;28;20465;-65
2021/01/11 08:57:17;;;;;;;18.80;15.63;;;2.40;99.90;;;;;;5063044;28;20495;-65
2021/01/11 08:59:50;;;;;;;22.60;16.50;;;2.40;99.90;;;;;;5067161;28;20260;-65
2021/01/11 09:02:29;;;;;;;19.80;15.97;;;2.40;99.90;;;;;;5068363;28;20184;-66
2021/01/11 09:04:56;;;;;;;20.47;16.83;;;2.40;99.90;;;;;;5060621;28;20434;-66
2021/01/11 09:07:31;;;;;;;20.33;16.00;;;2.50;99.90;;;;;;5067048;28;20453;-65
2021/01/11 09:09:57;;;;;;;18.33;15.10;;;2.40;99.90;;;;;;5065640;28;20429;-65
2021/01/11 09:12:31;;;;;;;18.93;14.50;;;2.40;99.90;;;;;;5069732;28;20437;-65
2021/01/11 09:14:57;;;;;;;16.80;13.27;;;2.40;99.90;;;;;;5068505;28;20469;-66
2021/01/11 09:17:26;;;;;;;18.67;13.53;;;2.30;99.90;;;;;;5060651;28;20880;-65
2021/01/11 09:19:51;;;;;;;17.37;13.60;;;2.40;99.90;;;;;;5064205;28;20523;-64
2021/01/11 09:22:28;;;;;;;18.10;13.47;;;2.40;99.90;;;;;;5069611;28;20914;-65
2021/01/11 09:24:53;;;;;;;16.97;12.33;;;2.30;99.90;;;;;;5063397;28;20199;-65
2021/01/11 09:27:19;;;;;;;12.70;11.20;;;2.40;99.90;;;;;;5061972;28;20764;-66
2021/01/11 09:29:44;;;;;;;13.70;12.07;;;2.40;99.90;;;;;;5065034;28;20245;-65
2021/01/11 09:32:10;;;;;;;15.13;10.90;;;2.40;99.90;;;;;;5063182;28;20740;-65
2021/01/11 09:34:35;;;;;;;13.90;10.43;;;2.40;99.90;;;;;;5063647;28;20207;-65
2021/01/11 09:37:01;;;;;;;13.77;11.83;;;2.50;99.90;;;;;;5066325;28;20196;-65
2021/01/11 09:39:27;;;;;;;16.40;12.40;;;2.50;99.90;;;;;;5064318;28;20669;-66
2021/01/11 09:41:54;;;;;;;13.60;11.00;;;2.50;99.90;;;;;;5064301;28;20241;-66
2021/01/11 09:44:20;;;;;;;14.53;10.80;;;2.60;99.90;;;;;;5067095;28;20524;-65
2021/01/11 09:46:49;;;;;;;15.53;11.93;;;2.60;99.90;;;;;;5068157;28;20429;-65
2021/01/11 09:49:15;;;;;;;15.43;12.20;;;2.50;99.90;;;;;;5066325;28;20445;-65
2021/01/11 09:51:41;;;;;;;14.40;10.20;;;2.50;99.90;;;;;;5066338;28;20449;-65
2021/01/11 09:54:07;;;;;;;13.23;10.30;;;2.60;99.90;;;;;;5065757;28;20937;-66
2021/01/11 09:56:37;;;;;;;15.50;12.13;;;2.60;99.90;;;;;;5064153;28;20616;-65
2021/01/11 09:59:04;;;;;;;12.50;10.67;;;2.50;99.90;;;;;;5059863;28;20445;-65
2021/01/11 10:01:36;;;;;;;15.47;12.13;;;2.50;99.90;;;;;;5066207;28;20525;-66
2021/01/11 10:04:02;;;;;;;17.57;12.43;;;2.60;99.90;;;;;;5062991;28;20433;-65
2021/01/11 10:06:27;;;;;;;13.93;11.70;;;2.60;99.90;;;;;;5064547;28;20426;-66
2021/01/11 10:08:53;;;;;;;15.73;12.70;;;2.50;99.90;;;;;;5063239;28;20552;-66
2021/01/11 10:11:18;;;;;;;16.43;14.57;;;2.40;99.90;;;;;;5065781;28;20190;-65
2021/01/11 10:13:44;;;;;;;12.50;11.17;;;2.40;99.90;;;;;;5061887;28;20183;-66
2021/01/11 10:16:09;;;;;;;14.07;11.00;;;2.30;99.90;;;;;;5067031;28;20522;-65
2021/01/11 10:18:35;;;;;;;14.30;11.23;;;2.30;99.90;;;;;;5065271;28;20349;-65
2021/01/11 10:21:01;;;;;;;12.10;9.97;;;2.20;99.90;;;;;;5064567;28;20589;-66
2021/01/11 10:23:28;;;;;;;13.67;11.97;;;2.20;99.90;;;;;;5063922;28;20291;-66
2021/01/11 10:25:54;;;;;;;13.57;10.93;;;2.20;99.90;;;;;;5063424;28;20476;-66
2021/01/11 10:28:19;;;;;;;13.40;11.30;;;2.20;99.90;;;;;;5060965;28;20426;-66
2021/01/11 10:30:45;;;;;;;14.13;11.20;;;2.20;99.90;;;;;;5059489;28;20210;-65
2021/01/11 10:33:10;;;;;;;15.93;12.03;;;2.20;99.90;;;;;;5063261;28;20544;-66
2021/01/11 10:35:36;;;;;;;13.17;10.10;;;2.30;99.90;;;;;;5064713;28;20556;-66
2021/01/11 10:38:02;;;;;;;14.07;10.80;;;2.30;99.90;;;;;;5063526;28;20954;-65
2021/01/11 10:40:27;;;;;;;13.73;10.13;;;2.30;99.90;;;;;;5062248;28;20256;-64
2021/01/11 10:42:53;;;;;;;12.80;10.90;;;2.40;99.90;;;;;;5064811;28;20202;-64
2021/01/11 10:45:18;;;;;;;12.27;10.10;;;2.40;99.90;;;;;;5064950;28;20244;-66
2021/01/11 10:47:44;;;;;;;14.10;11.83;;;2.40;99.90;;;;;;5061680;28;20324;-64
2021/01/11 10:50:09;;;;;;;15.40;10.43;;;2.50;99.90;;;;;;5063318;28;20552;-65
2021/01/11 10:52:35;;;;;;;13.77;10.57;;;2.50;99.90;;;;;;5060999;28;20191;-65
2021/01/11 10:55:00;;;;;;;11.67;9.50;;;2.50;99.90;;;;;;5064322;28;20316;-65
2021/01/11 10:57:26;;;;;;;11.93;10.03;;;2.50;99.90;;;;;;5066598;28;20191;-65
2021/01/11 10:59:52;;;;;;;11.53;10.33;;;2.50;99.90;;;;;;5063328;28;20231;-65
2021/01/11 11:02:17;;;;;;;12.90;9.07;;;2.60;99.90;;;;;;5062250;28;20187;-65
2021/01/11 11:04:45;;;;;;;10.30;9.20;;;2.60;99.90;;;;;;5061832;28;20794;-65
2021/01/11 11:07:12;;;;;;;11.90;9.70;;;2.70;99.90;;;;;;5063073;28;20556;-65
2021/01/11 11:09:37;;;;;;;13.50;9.90;;;2.70;99.90;;;;;;5060966;28;20438;-65
2021/01/11 11:12:03;;;;;;;13.80;11.40;;;2.60;99.90;;;;;;5062820;28;20934;-65
2021/01/11 11:14:28;;;;;;;12.50;10.27;;;2.60;99.90;;;;;;5064168;28;20258;-65
2021/01/11 11:16:54;;;;;;;10.90;9.33;;;2.60;99.90;;;;;;5066931;28;20199;-65
2021/01/11 11:19:20;;;;;;;13.37;9.83;;;2.60;99.90;;;;;;5061900;28;20214;-65
2021/01/11 11:21:46;;;;;;;11.00;9.80;;;2.70;99.90;;;;;;5061339;28;20215;-66
2021/01/11 11:24:12;;;;;;;10.50;9.50;;;2.70;99.90;;;;;;5060658;28;20284;-64
2021/01/11 11:26:38;;;;;;;10.43;9.10;;;2.60;99.90;;;;;;5057233;28;20944;-65
2021/01/11 11:29:04;;;;;;;11.37;9.80;;;2.70;99.90;;;;;;5064580;28;20207;-64
2021/01/11 11:31:33;;;;;;;11.30;9.83;;;2.60;99.90;;;;;;5064751;28;20777;-64
2021/01/11 11:33:59;;;;;;;14.33;9.50;;;2.70;99.90;;;;;;5059262;28;20194;-65
2021/01/11 11:36:24;;;;;;;12.53;9.53;;;2.70;99.90;;;;;;5058703;28;20466;-66
2021/01/11 11:38:50;;;;;;;10.43;9.20;;;2.70;99.90;;;;;;5066389;28;20207;-66
2021/01/11 11:41:18;;;;;;;11.20;9.50;;;2.70;99.90;;;;;;5063348;28;20261;-66
2021/01/11 11:43:44;;;;;;;13.33;10.50;;;2.70;99.90;;;;;;5064346;28;20640;-66
2021/01/11 11:46:09;;;;;;;12.77;10.00;;;2.60;99.90;;;;;;5060600;28;20434;-66
2021/01/11 11:48:35;;;;;;;10.60;9.50;;;2.70;99.90;;;;;;5059931;28;20273;-66
2021/01/11 11:51:00;;;;;;;10.63;9.53;;;2.70;99.90;;;;;;5063141;28;20241;-66
2021/01/11 11:53:26;;;;;;;11.00;7.97;;;2.70;99.90;;;;;;5066866;28;20180;-66
2021/01/11 11:55:51;;;;;;;9.77;8.70;;;2.70;99.90;;;;;;5063102;28;20242;-66
2021/01/11 11:58:17;;;;;;;12.97;10.30;;;2.80;99.90;;;;;;5062303;28;20196;-64
2021/01/11 12:00:42;;;;;;;12.17;9.00;;;2.80;99.90;;;;;;5064615;28;20661;-65
2021/01/11 12:03:08;;;;;;;11.80;9.90;;;2.80;99.90;;;;;;5058337;28;20686;-65
2021/01/11 12:05:33;;;;;;;14.03;9.27;;;2.70;99.90;;;;;;5039741;28;20245;-65
2021/01/11 12:07:59;;;;;;;10.40;9.37;;;2.70;99.90;;;;;;5044062;28;20191;-66
2021/01/11 12:10:24;;;;;;;9.80;8.03;;;2.70;99.90;;;;;;5062606;28;20271;-65
2021/01/11 12:12:50;;;;;;;10.23;8.13;;;2.80;99.90;;;;;;5061975;28;20219;-64
2021/01/11 12:15:16;;;;;;;11.63;9.23;;;2.80;99.90;;;;;;5064151;28;20283;-65
2021/01/11 12:17:43;;;;;;;11.73;8.40;;;2.90;99.90;;;;;;5066460;28;20200;-64
2021/01/11 12:20:09;;;;;;;10.57;9.47;;;2.90;99.90;;;;;;5062079;28;20442;-64
2021/01/11 12:22:36;;;;;;;10.27;8.47;;;2.80;99.90;;;;;;5067160;28;20490;-64
2021/01/11 12:25:03;;;;;;;10.00;8.70;;;2.90;99.90;;;;;;5062988;28;21014;-65
2021/01/11 12:27:30;;;;;;;12.53;8.23;;;2.90;99.90;;;;;;5057078;28;20430;-64
2021/01/11 12:29:56;;;;;;;11.40;9.53;;;3.00;99.90;;;;;;5060279;28;20438;-64
2021/01/11 12:32:21;;;;;;;10.37;9.10;;;3.10;99.90;;;;;;5064596;28;20542;-65
2021/01/11 12:34:47;;;;;;;13.00;9.90;;;3.10;99.90;;;;;;5060739;28;20535;-65
2021/01/11 12:37:14;;;;;;;10.00;8.57;;;3.10;99.90;;;;;;5063634;28;20836;-65
2021/01/11 12:39:39;;;;;;;10.87;8.80;;;3.10;99.90;;;;;;5063356;28;20554;-65
2021/01/11 12:42:06;;;;;;;9.63;8.63;;;3.20;99.90;;;;;;5065054;28;20457;-65
2021/01/11 12:44:32;;;;;;;10.73;9.60;;;3.30;99.90;;;;;;5062988;28;20277;-65